createdAt,value
2017-09-12T00:01:46.411Z,9.40
2017-09-12T00:04:14.175Z,9.30
2017-09-12T00:06:41.667Z,9.40
2017-09-12T00:09:09.238Z,9.40
2017-09-12T00:11:36.747Z,9.30
2017-09-12T00:14:04.338Z,9.30
2017-09-12T00:16:31.895Z,9.20
2017-09-12T00:18:59.546Z,9.10
2017-09-12T00:21:27.055Z,9.10
2017-09-12T00:23:54.739Z,9.10
2017-09-12T00:26:22.253Z,9.00
2017-09-12T00:28:49.782Z,8.90
2017-09-12T00:31:17.365Z,8.90
2017-09-12T00:33:44.978Z,8.90
2017-09-12T00:36:13.030Z,8.90
2017-09-12T00:38:40.603Z,8.90
2017-09-12T00:41:49.679Z,8.90
2017-09-12T00:44:17.259Z,8.90
2017-09-12T00:46:44.786Z,8.90
2017-09-12T00:49:12.298Z,8.90
2017-09-12T00:51:40.154Z,8.90
2017-09-12T00:54:07.899Z,8.90
2017-09-12T00:56:35.422Z,8.90
2017-09-12T00:59:03.369Z,8.90
2017-09-12T01:01:30.868Z,8.90
2017-09-12T01:03:58.886Z,8.90
2017-09-12T01:06:26.483Z,8.80
2017-09-12T01:08:53.983Z,8.80
2017-09-12T01:11:21.497Z,8.80
2017-09-12T01:13:49.771Z,8.80
2017-09-12T01:16:17.339Z,8.90
2017-09-12T01:18:45.524Z,8.90
2017-09-12T01:21:13.018Z,8.90
2017-09-12T01:23:40.523Z,8.80
2017-09-12T01:26:08.603Z,8.80
2017-09-12T01:28:36.104Z,8.80
2017-09-12T01:31:03.639Z,8.80
2017-09-12T01:33:31.411Z,8.70
2017-09-12T01:35:59.734Z,8.60
2017-09-12T01:38:27.874Z,8.60
2017-09-12T01:40:55.466Z,8.60
2017-09-12T01:43:22.987Z,8.50
2017-09-12T01:45:50.494Z,8.60
2017-09-12T01:48:18.926Z,8.60
2017-09-12T01:50:46.468Z,8.70
2017-09-12T01:53:14.043Z,8.60
2017-09-12T01:55:41.587Z,8.60
2017-09-12T01:58:09.350Z,8.70
2017-09-12T02:00:36.900Z,8.70
2017-09-12T02:03:04.434Z,8.60
2017-09-12T02:05:32.080Z,8.80
2017-09-12T02:07:59.594Z,8.80
2017-09-12T02:10:27.566Z,8.90
2017-09-12T02:12:55.090Z,8.90
2017-09-12T02:15:22.646Z,8.90
2017-09-12T02:17:50.435Z,9.00
2017-09-12T02:20:17.943Z,8.90
2017-09-12T02:22:45.506Z,8.90
2017-09-12T02:25:13.076Z,8.80
2017-09-12T02:27:40.629Z,8.70
2017-09-12T02:30:08.151Z,8.80
2017-09-12T02:32:35.722Z,8.80
2017-09-12T02:35:04.019Z,8.70
2017-09-12T02:37:31.517Z,8.70
2017-09-12T02:39:59.353Z,8.80
2017-09-12T02:42:26.858Z,8.90
2017-09-12T02:44:54.366Z,9.00
2017-09-12T02:47:22.563Z,9.00
2017-09-12T02:49:50.073Z,9.10
2017-09-12T02:52:18.326Z,9.10
2017-09-12T02:54:46.570Z,9.20
2017-09-12T02:57:14.070Z,9.30
2017-09-12T02:59:41.576Z,9.40
2017-09-12T03:02:09.358Z,9.50
2017-09-12T03:04:36.855Z,9.50
2017-09-12T03:07:04.359Z,9.40
2017-09-12T03:09:32.038Z,9.40
2017-09-12T03:11:59.570Z,9.30
2017-09-12T03:14:27.829Z,9.40
2017-09-12T03:16:56.138Z,9.50
2017-09-12T03:19:23.713Z,9.40
2017-09-12T03:21:51.227Z,9.50
2017-09-12T03:24:19.115Z,9.50
2017-09-12T03:26:46.647Z,9.60
2017-09-12T03:29:14.179Z,9.60
2017-09-12T03:31:42.111Z,9.50
2017-09-12T03:34:09.619Z,9.50
2017-09-12T03:36:37.135Z,9.40
2017-09-12T03:39:04.683Z,9.40
2017-09-12T03:41:32.183Z,9.40
2017-09-12T03:43:59.745Z,9.40
2017-09-12T03:46:27.307Z,9.30
2017-09-12T03:48:54.830Z,9.30
2017-09-12T03:51:22.375Z,9.40
2017-09-12T03:53:49.937Z,9.40
2017-09-12T03:56:17.543Z,9.50
2017-09-12T03:58:45.054Z,9.50
2017-09-12T04:01:12.987Z,9.60
2017-09-12T04:03:41.263Z,10.00
2017-09-12T04:06:09.535Z,10.00
2017-09-12T04:08:37.834Z,10.20
2017-09-12T04:11:05.372Z,10.20
2017-09-12T04:13:32.947Z,10.50
2017-09-12T04:16:01.498Z,10.70
2017-09-12T04:18:29.009Z,10.70
2017-09-12T04:20:56.511Z,10.70
2017-09-12T04:23:24.151Z,10.90
2017-09-12T04:25:51.664Z,10.90
2017-09-12T04:28:19.934Z,10.90
2017-09-12T04:30:48.458Z,10.80
2017-09-12T04:33:15.975Z,10.70
2017-09-12T04:35:43.478Z,10.60
2017-09-12T04:38:11.060Z,10.40
2017-09-12T04:40:38.570Z,10.40
2017-09-12T04:43:06.166Z,10.30
2017-09-12T04:45:33.761Z,10.20
2017-09-12T04:48:02.102Z,10.30
2017-09-12T04:50:29.603Z,10.30
2017-09-12T04:52:57.609Z,10.40
2017-09-12T04:55:25.373Z,10.40
2017-09-12T04:57:52.910Z,10.50
2017-09-12T05:00:21.222Z,10.80
2017-09-12T05:02:48.736Z,10.80
2017-09-12T05:05:16.235Z,11.00
2017-09-12T05:07:44.074Z,11.20
2017-09-12T05:10:12.019Z,11.40
2017-09-12T05:12:40.143Z,11.50
2017-09-12T05:15:07.639Z,11.70
2017-09-12T05:17:35.439Z,11.80
2017-09-12T05:20:02.945Z,11.90
2017-09-12T05:22:31.175Z,11.90
2017-09-12T05:24:58.783Z,12.10
2017-09-12T05:27:27.701Z,12.10
2017-09-12T05:29:55.735Z,12.10
2017-09-12T05:32:23.635Z,12.20
2017-09-12T05:34:51.462Z,12.20
2017-09-12T05:37:19.019Z,12.30
2017-09-12T05:39:46.607Z,12.40
2017-09-12T05:42:14.111Z,12.50
2017-09-12T05:44:43.272Z,12.60
2017-09-12T05:47:10.810Z,12.60
2017-09-12T05:49:38.398Z,12.60
2017-09-12T05:52:06.445Z,12.50
2017-09-12T05:54:33.955Z,12.50
2017-09-12T05:57:01.460Z,12.60
2017-09-12T05:59:29.003Z,12.70
2017-09-12T06:01:56.512Z,12.80
2017-09-12T06:04:24.218Z,12.90
2017-09-12T06:06:52.525Z,13.20
2017-09-12T06:09:20.036Z,13.00
2017-09-12T06:11:47.724Z,13.20
2017-09-12T06:14:15.300Z,13.00
2017-09-12T06:16:42.811Z,12.90
2017-09-12T06:19:10.338Z,12.90
2017-09-12T06:21:38.050Z,12.80
2017-09-12T06:24:05.564Z,12.90
2017-09-12T06:26:33.271Z,13.00
2017-09-12T06:29:00.824Z,13.10
2017-09-12T06:31:28.402Z,13.10
2017-09-12T06:33:55.907Z,13.10
2017-09-12T06:36:23.751Z,13.00
2017-09-12T06:38:51.448Z,13.10
2017-09-12T06:41:19.056Z,13.10
2017-09-12T06:43:46.655Z,13.00
2017-09-12T06:46:14.693Z,12.90
2017-09-12T06:48:42.191Z,12.70
2017-09-12T06:51:09.748Z,12.70
2017-09-12T06:53:37.295Z,12.60
2017-09-12T06:56:04.805Z,12.60
2017-09-12T06:58:32.738Z,12.60
2017-09-12T07:01:00.850Z,12.70
2017-09-12T07:03:28.439Z,12.50
2017-09-12T07:05:56.443Z,12.60
2017-09-12T07:08:23.947Z,12.50
2017-09-12T07:10:51.440Z,12.80
2017-09-12T07:13:19.003Z,13.10
2017-09-12T07:15:46.527Z,13.10
2017-09-12T07:18:14.035Z,13.10
2017-09-12T07:20:41.831Z,13.20
2017-09-12T07:23:10.049Z,13.50
2017-09-12T07:25:38.350Z,13.50
2017-09-12T07:28:05.935Z,13.80
2017-09-12T07:30:33.944Z,14.10
2017-09-12T07:33:01.463Z,14.20
2017-09-12T07:35:29.007Z,14.40
2017-09-12T07:37:56.535Z,14.90
2017-09-12T07:40:24.069Z,15.20
2017-09-12T07:42:51.584Z,15.00
2017-09-12T07:45:19.645Z,15.00
2017-09-12T07:47:47.169Z,14.80
2017-09-12T07:50:14.693Z,14.70
2017-09-12T07:52:42.570Z,14.70
2017-09-12T07:55:10.080Z,14.60
2017-09-12T07:57:37.835Z,14.60
2017-09-12T08:00:05.480Z,14.60
2017-09-12T08:02:32.976Z,14.60
2017-09-12T08:05:00.483Z,14.40
2017-09-12T08:07:28.055Z,14.50
2017-09-12T08:09:55.615Z,14.60
2017-09-12T08:12:23.115Z,14.50
2017-09-12T08:14:50.881Z,14.80
2017-09-12T08:17:18.389Z,15.00
2017-09-12T08:19:45.892Z,15.30
2017-09-12T08:22:13.443Z,15.40
2017-09-12T08:24:41.118Z,15.00
2017-09-12T08:27:08.633Z,15.00
2017-09-12T08:29:36.187Z,14.50
2017-09-12T08:32:03.796Z,14.60
2017-09-12T08:34:31.313Z,14.20
2017-09-12T08:36:58.864Z,13.90
2017-09-12T08:39:26.411Z,13.90
2017-09-12T08:41:54.699Z,14.00
2017-09-12T08:44:22.242Z,14.00
2017-09-12T08:46:49.772Z,14.20
2017-09-12T08:49:17.376Z,14.50
2017-09-12T08:51:44.931Z,14.90
2017-09-12T08:54:12.430Z,15.60
2017-09-12T08:56:40.044Z,16.10
2017-09-12T08:59:07.612Z,16.80
2017-09-12T09:01:35.115Z,17.20
2017-09-12T09:04:02.610Z,18.50
2017-09-12T09:06:30.931Z,19.10
2017-09-12T09:08:58.434Z,19.10
2017-09-12T09:11:26.087Z,18.10
2017-09-12T09:13:53.639Z,16.90
2017-09-12T09:16:21.140Z,16.90
2017-09-12T09:18:49.399Z,17.50
2017-09-12T09:21:18.049Z,18.40
2017-09-12T09:23:45.539Z,18.40
2017-09-12T09:26:13.031Z,18.50
2017-09-12T09:28:40.555Z,19.30
2017-09-12T09:31:08.051Z,21.20
2017-09-12T09:33:35.605Z,20.30
2017-09-12T09:36:03.479Z,20.50
2017-09-12T09:38:30.980Z,20.00
2017-09-12T09:40:58.535Z,19.30
2017-09-12T09:43:26.124Z,18.40
2017-09-12T09:45:53.692Z,19.50
2017-09-12T09:48:22.042Z,20.90
2017-09-12T09:50:49.606Z,20.90
2017-09-12T09:53:17.099Z,20.90
2017-09-12T09:55:45.224Z,18.90
2017-09-12T09:58:13.103Z,17.80
2017-09-12T10:00:40.606Z,16.20
2017-09-12T10:03:08.102Z,15.10
2017-09-12T10:05:35.995Z,14.60
2017-09-12T10:08:03.496Z,14.50
2017-09-12T10:10:31.052Z,14.50
2017-09-12T10:12:59.007Z,14.50
2017-09-12T10:15:27.372Z,15.10
2017-09-12T10:17:54.879Z,15.10
2017-09-12T10:20:22.623Z,15.70
2017-09-12T10:22:50.127Z,16.90
2017-09-12T10:25:18.078Z,18.30
2017-09-12T10:27:45.639Z,18.20
2017-09-12T10:30:13.248Z,18.70
2017-09-12T10:32:41.514Z,18.00
2017-09-12T10:35:09.081Z,17.90
2017-09-12T10:37:36.655Z,17.20
2017-09-12T10:40:04.919Z,15.70
2017-09-12T10:42:33.483Z,15.40
2017-09-12T10:45:01.016Z,15.30
2017-09-12T10:47:28.516Z,14.90
2017-09-12T10:49:56.827Z,15.10
2017-09-12T10:52:24.514Z,15.00
2017-09-12T10:54:52.492Z,15.70
2017-09-12T10:57:20.072Z,16.70
2017-09-12T10:59:47.718Z,18.40
2017-09-12T11:02:15.234Z,20.90
2017-09-12T11:04:42.783Z,21.70
2017-09-12T11:07:11.064Z,20.90
2017-09-12T11:09:38.570Z,20.90
2017-09-12T11:12:06.360Z,20.60
2017-09-12T11:14:34.047Z,21.00
2017-09-12T11:17:01.619Z,21.40
2017-09-12T11:19:29.917Z,21.90
2017-09-12T11:21:57.689Z,22.00
2017-09-12T11:24:25.191Z,20.10
2017-09-12T11:26:53.044Z,18.70
2017-09-12T11:29:20.627Z,17.20
2017-09-12T11:31:49.173Z,15.00
2017-09-12T11:34:16.703Z,14.90
2017-09-12T11:36:44.280Z,15.10
2017-09-12T11:39:11.889Z,16.30
2017-09-12T11:41:40.242Z,18.60
2017-09-12T11:44:07.851Z,18.60
2017-09-12T11:46:35.354Z,18.50
2017-09-12T11:49:03.255Z,19.00
2017-09-12T11:51:30.779Z,19.30
2017-09-12T11:53:58.308Z,18.40
2017-09-12T11:56:26.282Z,17.60
2017-09-12T11:58:53.779Z,17.50
2017-09-12T12:01:21.313Z,17.00
2017-09-12T12:03:49.120Z,16.50
2017-09-12T12:06:17.562Z,15.80
2017-09-12T12:08:45.223Z,15.80
2017-09-12T12:11:13.103Z,15.80
2017-09-12T12:13:40.619Z,16.00
2017-09-12T12:16:08.118Z,16.20
2017-09-12T12:18:35.682Z,16.30
2017-09-12T12:21:03.227Z,16.20
2017-09-12T12:23:30.727Z,16.50
2017-09-12T12:25:58.287Z,16.70
2017-09-12T12:28:26.551Z,15.60
2017-09-12T12:30:54.077Z,15.60
2017-09-12T12:33:21.720Z,15.40
2017-09-12T12:35:49.219Z,15.30
2017-09-12T12:38:16.756Z,15.20
2017-09-12T12:40:44.308Z,16.20
2017-09-12T12:43:11.804Z,17.10
2017-09-12T12:45:39.455Z,17.40
2017-09-12T12:48:07.003Z,17.50
2017-09-12T12:50:34.532Z,17.30
2017-09-12T12:53:02.068Z,17.00
2017-09-12T12:55:30.711Z,17.10
2017-09-12T12:57:58.211Z,17.10
2017-09-12T13:00:25.795Z,17.00
2017-09-12T13:02:53.383Z,16.90
2017-09-12T13:05:20.892Z,16.60
2017-09-12T13:07:54.865Z,16.90
2017-09-12T13:10:22.630Z,16.80
2017-09-12T13:12:50.239Z,16.70
2017-09-12T13:15:17.784Z,16.90
2017-09-12T13:17:45.438Z,17.20
2017-09-12T13:20:12.942Z,17.20
2017-09-12T13:22:40.487Z,17.90
2017-09-12T13:25:08.014Z,18.90
2017-09-12T13:27:35.602Z,19.30
2017-09-12T13:30:03.206Z,19.70
2017-09-12T13:32:30.706Z,20.40
2017-09-12T13:34:59.027Z,21.20
2017-09-12T13:37:26.798Z,21.20
2017-09-12T13:39:54.300Z,20.90
2017-09-12T13:42:22.578Z,20.70
2017-09-12T13:44:50.126Z,20.60
2017-09-12T13:47:17.618Z,21.50
2017-09-12T13:49:45.878Z,21.90
2017-09-12T13:52:13.819Z,21.90
2017-09-12T13:54:41.395Z,22.20
2017-09-12T13:57:08.895Z,20.60
2017-09-12T13:59:36.791Z,20.10
2017-09-12T14:02:04.296Z,19.50
2017-09-12T14:04:31.863Z,18.60
2017-09-12T14:07:00.251Z,17.60
2017-09-12T14:09:28.271Z,17.70
2017-09-12T14:11:55.773Z,17.20
2017-09-12T14:14:23.800Z,16.90
2017-09-12T14:16:51.389Z,16.60
2017-09-12T14:19:18.898Z,16.50
2017-09-12T14:21:46.459Z,17.10
2017-09-12T14:24:13.966Z,17.30
2017-09-12T14:26:41.459Z,17.30
2017-09-12T14:29:09.256Z,17.30
2017-09-12T14:31:38.295Z,17.10
2017-09-12T14:34:06.211Z,16.90
2017-09-12T14:36:33.755Z,16.80
2017-09-12T14:39:01.265Z,16.80
2017-09-12T14:41:28.777Z,16.90
2017-09-12T14:43:56.812Z,16.70
2017-09-12T14:46:25.067Z,16.80
2017-09-12T14:48:52.695Z,16.90
2017-09-12T14:51:20.303Z,17.10
2017-09-12T14:53:48.335Z,17.20
2017-09-12T14:56:15.935Z,16.90
2017-09-12T14:58:43.531Z,16.90
2017-09-12T15:01:11.038Z,16.70
2017-09-12T15:03:38.552Z,16.70
2017-09-12T15:06:06.311Z,16.50
2017-09-12T15:08:34.260Z,16.80
2017-09-12T15:11:01.765Z,17.00
2017-09-12T15:13:29.360Z,16.70
2017-09-12T15:15:57.026Z,16.90
2017-09-12T15:18:24.606Z,16.80
2017-09-12T15:20:53.390Z,16.60
2017-09-12T15:23:20.909Z,16.50
2017-09-12T15:25:48.408Z,16.40
2017-09-12T15:28:16.744Z,16.10
2017-09-12T15:30:44.519Z,16.10
2017-09-12T15:33:12.030Z,15.90
2017-09-12T15:35:39.696Z,15.90
2017-09-12T15:38:07.262Z,16.00
2017-09-12T15:40:34.843Z,16.10
2017-09-12T15:43:02.763Z,16.10
2017-09-12T15:45:30.271Z,16.20
2017-09-12T15:47:57.771Z,16.30
2017-09-12T15:50:25.517Z,16.50
2017-09-12T15:52:53.015Z,16.30
2017-09-12T15:55:20.520Z,16.60
2017-09-12T15:57:48.069Z,16.80
2017-09-12T16:00:15.572Z,16.90
2017-09-12T16:02:43.112Z,17.10
2017-09-12T16:05:10.660Z,17.10
2017-09-12T16:07:38.189Z,16.90
2017-09-12T16:10:05.964Z,16.90
2017-09-12T16:12:33.568Z,16.80
2017-09-12T16:15:01.063Z,16.90
2017-09-12T16:17:28.589Z,16.80
2017-09-12T16:19:56.316Z,16.90
2017-09-12T16:22:23.947Z,16.80
2017-09-12T16:24:51.587Z,16.60
2017-09-12T16:27:19.499Z,16.60
2017-09-12T16:29:47.297Z,16.40
2017-09-12T16:32:14.847Z,16.40
2017-09-12T16:34:42.786Z,16.40
2017-09-12T16:37:10.398Z,16.60
2017-09-12T16:39:37.974Z,16.60
2017-09-12T16:42:05.895Z,16.40
2017-09-12T16:44:33.710Z,16.30
2017-09-12T16:47:01.391Z,16.10
2017-09-12T16:49:29.002Z,16.00
2017-09-12T16:51:56.550Z,15.90
2017-09-12T16:54:24.080Z,15.80
2017-09-12T16:56:51.761Z,15.70
2017-09-12T16:59:19.355Z,15.60
2017-09-12T17:01:46.899Z,15.60
2017-09-12T17:04:14.516Z,15.40
2017-09-12T17:06:42.503Z,15.30
2017-09-12T17:09:10.101Z,15.30
2017-09-12T17:11:37.600Z,15.30
2017-09-12T17:14:05.311Z,15.30
2017-09-12T17:16:32.837Z,15.20
2017-09-12T17:19:00.544Z,15.20
2017-09-12T17:21:28.220Z,15.20
2017-09-12T17:23:55.939Z,15.20
2017-09-12T17:26:23.671Z,15.20
2017-09-12T17:28:52.503Z,15.20
2017-09-12T17:31:20.287Z,15.20
2017-09-12T17:33:47.815Z,15.30
2017-09-12T17:36:15.616Z,15.20
2017-09-12T17:38:43.142Z,15.10
2017-09-12T17:41:10.687Z,15.10
2017-09-12T17:43:38.283Z,15.00
2017-09-12T17:46:05.779Z,15.00
2017-09-12T17:48:33.374Z,14.90
2017-09-12T17:51:01.349Z,14.80
2017-09-12T17:53:29.035Z,14.60
2017-09-12T17:55:56.715Z,14.70
2017-09-12T17:58:24.296Z,14.80
2017-09-12T18:00:52.870Z,14.60
2017-09-12T18:03:20.594Z,14.60
2017-09-12T18:05:48.371Z,14.70
2017-09-12T18:08:15.895Z,14.70
2017-09-12T18:10:43.564Z,14.60
2017-09-12T18:13:12.095Z,14.70
2017-09-12T18:15:39.755Z,14.70
2017-09-12T18:18:07.355Z,14.70
2017-09-12T18:20:34.931Z,14.60
2017-09-12T18:23:02.429Z,14.60
2017-09-12T18:25:30.300Z,14.60
2017-09-12T18:27:57.908Z,14.40
2017-09-12T18:30:25.527Z,14.40
2017-09-12T18:32:53.145Z,14.30
2017-09-12T18:35:20.976Z,14.30
2017-09-12T18:37:48.815Z,14.30
2017-09-12T18:40:16.313Z,14.30
2017-09-12T18:42:43.913Z,14.40
2017-09-12T18:45:11.649Z,14.40
2017-09-12T18:47:39.182Z,14.40
2017-09-12T18:50:07.447Z,14.40
2017-09-12T18:52:35.783Z,14.20
2017-09-12T18:55:03.286Z,14.20
2017-09-12T18:57:30.871Z,14.00
2017-09-12T18:59:58.439Z,13.90
2017-09-12T19:02:25.952Z,13.70
2017-09-12T19:04:53.460Z,13.70
2017-09-12T19:07:21.205Z,13.80
2017-09-12T19:09:48.987Z,13.70
2017-09-12T19:12:16.764Z,13.80
2017-09-12T19:14:44.323Z,13.80
2017-09-12T19:17:12.696Z,13.80
2017-09-12T19:19:40.191Z,13.70
2017-09-12T19:22:07.852Z,13.80
2017-09-12T19:24:35.354Z,13.80
2017-09-12T19:27:02.897Z,13.70
2017-09-12T19:29:30.691Z,13.70
2017-09-12T19:31:58.248Z,13.60
2017-09-12T19:34:25.807Z,13.60
2017-09-12T19:36:53.484Z,13.60
2017-09-12T19:39:21.023Z,13.60
2017-09-12T19:41:48.682Z,13.60
2017-09-12T19:44:17.180Z,13.70
2017-09-12T19:46:44.993Z,13.70
2017-09-12T19:49:12.606Z,13.60
2017-09-12T19:51:40.210Z,13.70
2017-09-12T19:54:07.722Z,13.70
2017-09-12T19:56:35.278Z,13.60
2017-09-12T19:59:03.179Z,13.60
2017-09-12T20:01:31.075Z,13.60
2017-09-12T20:04:00.139Z,13.50
2017-09-12T20:06:27.747Z,13.50
2017-09-12T20:08:55.751Z,13.40
2017-09-12T20:11:23.315Z,13.30
2017-09-12T20:13:50.867Z,13.30
2017-09-12T20:16:18.440Z,13.30
2017-09-12T20:18:46.264Z,13.40
2017-09-12T21:43:11.978Z,13.30
2017-09-12T21:45:39.552Z,12.60
2017-09-12T21:48:07.060Z,12.60
2017-09-12T21:50:35.443Z,12.50
2017-09-12T21:53:02.983Z,12.50
2017-09-12T21:55:30.535Z,12.40
2017-09-12T21:57:58.099Z,12.40
2017-09-12T22:00:25.595Z,12.20
2017-09-12T22:02:53.514Z,12.20
2017-09-12T22:05:21.303Z,12.10
2017-09-12T22:07:49.630Z,11.90
2017-09-12T22:10:17.209Z,11.90
2017-09-12T22:12:44.762Z,11.80
2017-09-12T22:15:12.260Z,11.70
2017-09-12T22:17:39.763Z,11.70
2017-09-12T22:20:07.380Z,11.60
2017-09-12T22:22:34.923Z,11.40
2017-09-12T22:25:03.112Z,11.30
2017-09-12T22:27:30.700Z,11.20
2017-09-12T22:29:58.217Z,11.10
2017-09-12T22:32:25.728Z,11.00
2017-09-12T22:34:53.445Z,11.00
2017-09-12T22:37:21.770Z,11.00
2017-09-12T22:39:49.295Z,10.90
2017-09-12T22:42:16.849Z,11.00
2017-09-12T22:44:45.131Z,10.80
2017-09-12T22:47:13.396Z,10.80
2017-09-12T22:49:41.847Z,10.80
2017-09-12T22:52:09.452Z,10.70
2017-09-12T22:54:37.020Z,10.80
2017-09-12T22:57:04.998Z,10.70
2017-09-12T22:59:32.527Z,10.60
2017-09-12T23:02:00.809Z,10.70
2017-09-12T23:04:30.339Z,10.60
2017-09-12T23:06:57.835Z,10.50
2017-09-12T23:09:25.337Z,10.50
2017-09-12T23:11:53.031Z,10.40
2017-09-12T23:14:20.554Z,10.40
2017-09-12T23:16:48.876Z,10.30
2017-09-12T23:19:16.434Z,10.20
2017-09-12T23:21:43.939Z,10.10
2017-09-12T23:24:11.439Z,10.10
2017-09-12T23:26:39.071Z,10.10
2017-09-12T23:29:07.350Z,10.00
2017-09-12T23:31:35.670Z,10.00
2017-09-12T23:34:03.575Z,9.90
2017-09-12T23:36:31.082Z,10.00
2017-09-12T23:38:58.582Z,10.00
2017-09-12T23:41:26.588Z,10.00
2017-09-12T23:43:54.163Z,10.00
2017-09-12T23:46:21.748Z,10.00
2017-09-12T23:48:49.294Z,9.90
2017-09-12T23:51:16.815Z,9.80
2017-09-12T23:53:44.360Z,9.80
2017-09-12T23:56:11.907Z,9.90
2017-09-12T23:58:39.415Z,9.90
